| time (UTC) | temp F | wind direction | speed MPH | gust MPH | rain 1hr in | rain 24hr in | rain mn in | humidity % | barometer mb |
| 20260507144521 | 54 | 240 | 4.0 | 11.0 | 0.00 | 0.20 | 0.00 | 42 | 1021.6 |
| 20260507143017 | 52 | 291 | 3.0 | 10.0 | 0.00 | 0.20 | 0.00 | 51 | 1021.7 |
| 20260507141616 | 50 | 281 | 3.0 | 6.0 | 0.00 | 0.20 | 0.00 | 52 | 1021.8 |
| 20260507140016 | 49 | 271 | 3.0 | 10.0 | 0.00 | 0.20 | 0.00 | 52 | 1022.1 |
| 20260507134521 | 47 | 254 | 4.0 | 10.0 | 0.00 | 0.20 | 0.00 | 52 | 1022.0 |
| 20260507133004 | 45 | 261 | 3.0 | 8.0 | 0.00 | 0.20 | 0.00 | 54 | 1022.0 |
| 20260507131622 | 43 | 235 | 6.0 | 10.0 | 0.00 | 0.20 | 0.00 | 57 | 1021.8 |
| 20260507130056 | 41 | 232 | 8.0 | 10.0 | 0.00 | 0.20 | 0.00 | 58 | 1021.9 |
| 20260507124554 | 39 | 227 | 7.0 | 10.0 | 0.00 | 0.20 | 0.00 | 60 | 1021.8 |
| 20260507123047 | 35 | 215 | 5.0 | 8.0 | 0.00 | 0.20 | 0.00 | 69 | 1021.6 |
| 20260507121546 | 33 | 216 | 5.0 | 8.0 | 0.00 | 0.20 | 0.00 | 69 | 1021.6 |
| 20260507120044 | 36 | 209 | 7.0 | 10.0 | 0.00 | 0.20 | 0.00 | 61 | 1021.6 |
| 20260507114543 | 36 | 227 | 7.0 | 10.0 | 0.00 | 0.20 | 0.00 | 62 | 1021.6 |
| 20260507113042 | 36 | 236 | 7.0 | 9.0 | 0.00 | 0.20 | 0.00 | 61 | 1021.7 |
| 20260507111542 | 35 | 236 | 6.0 | 8.0 | 0.00 | 0.20 | 0.00 | 62 | 1021.6 |
| 20260507110052 | 35 | 229 | 6.0 | 9.0 | 0.00 | 0.20 | 0.00 | 63 | 1021.6 |
| 20260507104537 | 35 | 221 | 6.0 | 9.0 | 0.00 | 0.20 | 0.00 | 63 | 1021.9 |
| 20260507103035 | 35 | 221 | 7.0 | 10.0 | 0.00 | 0.20 | 0.00 | 64 | 1022.1 |
| 20260507101541 | 35 | 228 | 8.0 | 10.0 | 0.00 | 0.20 | 0.00 | 65 | 1022.2 |
| 20260507100034 | 34 | 232 | 9.0 | 11.0 | 0.00 | 0.20 | 0.00 | 68 | 1022.3 |
| 20260507094527 | 34 | 231 | 9.0 | 11.0 | 0.00 | 0.20 | 0.00 | 70 | 1022.4 |
| 20260507093025 | 34 | 230 | 8.0 | 12.0 | 0.00 | 0.20 | 0.00 | 71 | 1022.3 |
| 20260507091523 | 34 | 235 | 9.0 | 12.0 | 0.00 | 0.20 | 0.00 | 74 | 1022.5 |
| 20260507090028 | 33 | 222 | 7.0 | 10.0 | 0.00 | 0.20 | 0.00 | 76 | 1022.7 |
| 20260507084529 | 32 | 218 | 9.0 | 12.0 | 0.00 | 0.20 | 0.00 | 83 | 1022.7 |
| 20260507083013 | 31 | 205 | 10.0 | 15.0 | 0.00 | 0.20 | 0.00 | 87 | 1022.7 |
| 20260507081514 | 31 | 213 | 11.0 | 14.0 | 0.00 | 0.20 | 0.00 | 89 | 1022.9 |
| 20260507080010 | 31 | 214 | 13.0 | 17.0 | 0.00 | 0.20 | 0.00 | 90 | 1023.0 |
| 20260507074522 | 32 | 209 | 13.0 | 18.0 | 0.00 | 0.20 | 0.00 | 89 | 1023.1 |
| 20260507073004 | 32 | 221 | 15.0 | 21.0 | 0.00 | 0.20 | 0.00 | 90 | 1023.2 |
| 20260507071503 | 32 | 231 | 15.0 | 21.0 | 0.00 | 0.20 | 0.00 | 90 | 1023.3 |
| 20260507070108 | 32 | 225 | 16.0 | 21.0 | 0.00 | 0.20 | 0.00 | 91 | 1023.4 |
| 20260507070003 | 32 | 220 | 16.0 | 21.0 | 0.00 | 0.20 | 0.00 | 91 | 1023.5 |
| 20260507064600 | 32 | 227 | 14.0 | 23.0 | 0.00 | 0.20 | 0.00 | 91 | 1023.6 |
| 20260507063058 | 32 | 226 | 16.0 | 23.0 | 0.00 | 0.20 | 0.00 | 91 | 1023.6 |
| 20260507061557 | 32 | 223 | 16.0 | 22.0 | 0.00 | 0.20 | 0.00 | 91 | 1023.7 |
| 20260507060104 | 32 | 221 | 15.0 | 24.0 | 0.00 | 0.20 | 0.00 | 91 | 1023.6 |
| 20260507054556 | 32 | 218 | 15.0 | 22.0 | 0.00 | 0.20 | 0.20 | 92 | 1023.5 |
| 20260507053054 | 32 | 219 | 17.0 | 24.0 | 0.00 | 0.20 | 0.20 | 92 | 1023.4 |
| 20260507051551 | 32 | 217 | 13.0 | 21.0 | 0.00 | 0.20 | 0.20 | 92 | 1023.7 |
| 20260507050050 | 32 | 205 | 14.0 | 20.0 | 0.00 | 0.20 | 0.20 | 93 | 1023.6 |
| 20260507044550 | 32 | 220 | 13.0 | 20.0 | 0.00 | 0.21 | 0.20 | 93 | 1023.6 |
| 20260507043050 | 32 | 205 | 13.0 | 17.0 | 0.00 | 0.21 | 0.20 | 93 | 1023.5 |
| 20260507041549 | 32 | 196 | 13.0 | 17.0 | 0.00 | 0.21 | 0.20 | 93 | 1023.6 |
| 20260507040047 | 32 | 201 | 12.0 | 22.0 | 0.00 | 0.21 | 0.20 | 92 | 1023.7 |
| 20260507034647 | 32 | 205 | 11.0 | 15.0 | 0.00 | 0.21 | 0.20 | 92 | 1023.7 |
| 20260507033047 | 32 | 199 | 10.0 | 15.0 | 0.00 | 0.21 | 0.20 | 92 | 1023.7 |
| 20260507031545 | 32 | 204 | 10.0 | 14.0 | 0.00 | 0.21 | 0.20 | 90 | 1023.7 |
| 20260507030044 | 32 | 190 | 9.0 | 13.0 | 0.00 | 0.21 | 0.20 | 90 | 1023.7 |
| 20260507024553 | 32 | 166 | 6.0 | 8.0 | 0.00 | 0.22 | 0.20 | 88 | 1023.6 |
| 20260507023043 | 32 | 169 | 6.0 | 9.0 | 0.00 | 0.22 | 0.20 | 87 | 1023.5 |
| 20260507021548 | 32 | 145 | 2.0 | 5.0 | 0.00 | 0.22 | 0.20 | 87 | 1023.6 |
| 20260507020051 | 34 | 149 | 3.0 | 5.0 | 0.00 | 0.22 | 0.20 | 85 | 1023.4 |
| 20260507014544 | 35 | 158 | 4.0 | 7.0 | 0.00 | 0.23 | 0.20 | 81 | 1023.5 |
| 20260507013042 | 36 | 158 | 4.0 | 6.0 | 0.00 | 0.23 | 0.20 | 78 | 1023.5 |
| 20260507011545 | 37 | 156 | 5.0 | 6.0 | 0.00 | 0.23 | 0.20 | 77 | 1023.6 |
| 20260507010049 | 38 | 171 | 3.0 | 6.0 | 0.00 | 0.23 | 0.20 | 75 | 1023.6 |
| 20260507004640 | 38 | 215 | 2.0 | 8.0 | 0.00 | 0.24 | 0.20 | 74 | 1023.5 |
| 20260507003040 | 39 | 214 | 0.0 | 4.0 | 0.00 | 0.24 | 0.20 | 75 | 1023.4 |
| 20260507001546 | 38 | 228 | 0.0 | 3.0 | 0.00 | 0.24 | 0.20 | 76 | 1023.5 |
| 20260507000034 | 38 | 259 | 0.0 | 5.0 | 0.00 | 0.24 | 0.20 | 75 | 1023.7 |
| 20260506234531 | 37 | 265 | 2.0 | 4.0 | 0.00 | 0.24 | 0.20 | 78 | 1023.6 |
| 20260506233028 | 36 | 315 | 3.0 | 6.0 | 0.00 | 0.24 | 0.20 | 83 | 1023.9 |
| 20260506231527 | 35 | 12 | 2.0 | 8.0 | 0.00 | 0.24 | 0.20 | 84 | 1024.0 |
| 20260506230027 | 34 | 216 | 2.0 | 7.0 | 0.00 | 0.24 | 0.20 | 85 | 1024.1 |
| 20260506224523 | 35 | 244 | 1.0 | 9.0 | 0.00 | 0.24 | 0.20 | 88 | 1023.9 |
| 20260506223021 | 33 | 265 | 3.0 | 9.0 | 0.00 | 0.24 | 0.20 | 87 | 1024.0 |
| 20260506221520 | 33 | 288 | 4.0 | 10.0 | 0.00 | 0.24 | 0.20 | 88 | 1024.1 |
| 20260506220020 | 34 | 30 | 6.0 | 10.0 | 0.00 | 0.24 | 0.20 | 91 | 1024.0 |
| 20260506214519 | 34 | 350 | 5.0 | 9.0 | 0.01 | 0.24 | 0.20 | 91 | 1023.9 |
| 20260506213018 | 33 | 16 | 6.0 | 10.0 | 0.02 | 0.24 | 0.20 | 91 | 1024.0 |
| 20260506211517 | 34 | 15 | 5.0 | 10.0 | 0.03 | 0.24 | 0.20 | 92 | 1024.0 |
| 20260506210015 | 33 | 360 | 6.0 | 10.0 | 0.04 | 0.24 | 0.20 | 94 | 1024.2 |
| 20260506204513 | 32 | 360 | 9.0 | 12.0 | 0.03 | 0.24 | 0.19 | 94 | 1024.5 |
| 20260506203013 | 32 | 14 | 11.0 | 14.0 | 0.04 | 0.23 | 0.18 | 94 | 1024.5 |
| 20260506201512 | 32 | 5 | 10.0 | 14.0 | 0.04 | 0.22 | 0.17 | 95 | 1024.5 |
| 20260506200012 | 32 | 344 | 10.0 | 15.0 | 0.04 | 0.21 | 0.16 | 95 | 1024.5 |
| 20260506194508 | 32 | 16 | 11.0 | 15.0 | 0.06 | 0.21 | 0.16 | 94 | 1024.3 |
| 20260506193007 | 32 | 355 | 11.0 | 15.0 | 0.06 | 0.19 | 0.14 | 95 | 1024.3 |
| 20260506191506 | 31 | 5 | 11.0 | 14.0 | 0.06 | 0.18 | 0.13 | 95 | 1024.3 |
| 20260506190006 | 32 | 360 | 10.0 | 13.0 | 0.07 | 0.17 | 0.12 | 94 | 1024.4 |
| 20260506184516 | 32 | 16 | 9.0 | 13.0 | 0.06 | 0.15 | 0.10 | 95 | 1024.4 |
| 20260506183006 | 31 | 24 | 11.0 | 15.0 | 0.06 | 0.13 | 0.08 | 95 | 1024.5 |
| 20260506181503 | 31 | 16 | 12.0 | 16.0 | 0.05 | 0.12 | 0.07 | 95 | 1024.4 |
| 20260506180006 | 31 | 19 | 10.0 | 14.0 | 0.04 | 0.10 | 0.05 | 95 | 1024.4 |
| 20260506174607 | 31 | 5 | 11.0 | 14.0 | 0.03 | 0.09 | 0.04 | 95 | 1024.2 |
| 20260506173127 | 32 | 5 | 9.0 | 12.0 | 0.01 | 0.07 | 0.02 | 95 | 1024.0 |
| 20260506171600 | 31 | 12 | 6.0 | 10.0 | 0.01 | 0.07 | 0.02 | 96 | 1024.1 |
| 20260506170055 | 31 | 26 | 7.0 | 10.0 | 0.01 | 0.06 | 0.01 | 96 | 1023.9 |
| 20260506164554 | 31 | 9 | 9.0 | 12.0 | 0.01 | 0.07 | 0.01 | 96 | 1023.8 |
| 20260506163055 | 31 | 19 | 8.0 | 12.0 | 0.01 | 0.07 | 0.01 | 96 | 1023.6 |
| 20260506161600 | 31 | 355 | 7.0 | 10.0 | 0.01 | 0.07 | 0.01 | 96 | 1023.5 |
| 20260506160050 | 31 | 17 | 7.0 | 11.0 | 0.00 | 0.06 | 0.00 | 97 | 1023.3 |
| 20260506154547 | 31 | 32 | 6.0 | 9.0 | 0.00 | 0.06 | 0.00 | 97 | 1023.1 |
| 20260506153045 | 30 | 30 | 6.0 | 9.0 | 0.00 | 0.06 | 0.00 | 97 | 1022.9 |
| 20260506151544 | 29 | 22 | 5.0 | 9.0 | 0.00 | 0.06 | 0.00 | 97 | 1022.8 |
| 20260506150050 | 29 | 12 | 5.0 | 9.0 | 0.00 | 0.06 | 0.00 | 97 | 1022.9 |